sensor_id;sensor_type;location;lat;lon;timestamp;P1;durP1;ratioP1;P2;durP2;ratioP2
45863;SDS011;31579;52.354;16.974;2023-02-03T00:01:50;21.80;;;8.90;;
45863;SDS011;31579;52.354;16.974;2023-02-03T00:06:50;20.00;;;8.10;;
45863;SDS011;31579;52.354;16.974;2023-02-03T00:11:50;20.00;;;8.10;;
45863;SDS011;31579;52.354;16.974;2023-02-03T00:16:54;21.60;;;8.80;;
45863;SDS011;31579;52.354;16.974;2023-02-03T00:21:50;21.60;;;8.80;;
45863;SDS011;31579;52.354;16.974;2023-02-03T00:26:50;21.90;;;8.80;;
45863;SDS011;31579;52.354;16.974;2023-02-03T00:31:51;21.90;;;8.80;;
45863;SDS011;31579;52.354;16.974;2023-02-03T00:36:53;22.30;;;9.20;;
45863;SDS011;31579;52.354;16.974;2023-02-03T00:41:50;22.30;;;9.20;;
45863;SDS011;31579;52.354;16.974;2023-02-03T00:46:50;25.60;;;10.60;;
45863;SDS011;31579;52.354;16.974;2023-02-03T00:51:50;25.60;;;10.60;;
45863;SDS011;31579;52.354;16.974;2023-02-03T00:56:50;30.30;;;13.70;;
45863;SDS011;31579;52.354;16.974;2023-02-03T01:01:50;30.30;;;13.70;;
45863;SDS011;31579;52.354;16.974;2023-02-03T01:05:26;21.20;;;10.30;;
45863;SDS011;31579;52.354;16.974;2023-02-03T01:10:24;21.20;;;10.30;;
45863;SDS011;31579;52.354;16.974;2023-02-03T01:15:24;21.50;;;9.30;;
45863;SDS011;31579;52.354;16.974;2023-02-03T01:20:24;21.50;;;9.30;;
45863;SDS011;31579;52.354;16.974;2023-02-03T01:25:24;23.20;;;10.10;;
45863;SDS011;31579;52.354;16.974;2023-02-03T01:30:24;23.20;;;10.10;;
45863;SDS011;31579;52.354;16.974;2023-02-03T01:35:24;28.60;;;11.80;;
45863;SDS011;31579;52.354;16.974;2023-02-03T01:40:24;28.60;;;11.80;;
45863;SDS011;31579;52.354;16.974;2023-02-03T01:45:28;28.70;;;11.30;;
45863;SDS011;31579;52.354;16.974;2023-02-03T01:50:26;28.70;;;11.30;;
45863;SDS011;31579;52.354;16.974;2023-02-03T01:55:26;26.20;;;10.40;;
45863;SDS011;31579;52.354;16.974;2023-02-03T02:02:06;26.20;;;10.40;;
45863;SDS011;31579;52.354;16.974;2023-02-03T02:07:06;29.50;;;11.00;;
45863;SDS011;31579;52.354;16.974;2023-02-03T02:12:07;29.50;;;11.00;;
45863;SDS011;31579;52.354;16.974;2023-02-03T02:45:38;27.00;;;11.80;;
45863;SDS011;31579;52.354;16.974;2023-02-03T02:50:32;27.00;;;11.80;;
45863;SDS011;31579;52.354;16.974;2023-02-03T02:55:31;25.80;;;10.70;;
45863;SDS011;31579;52.354;16.974;2023-02-03T03:00:31;25.80;;;10.70;;
45863;SDS011;31579;52.354;16.974;2023-02-03T03:05:31;24.20;;;10.60;;
45863;SDS011;31579;52.354;16.974;2023-02-03T03:10:31;24.20;;;10.60;;
45863;SDS011;31579;52.354;16.974;2023-02-03T03:15:31;21.90;;;10.10;;
45863;SDS011;31579;52.354;16.974;2023-02-03T03:20:31;21.90;;;10.10;;
45863;SDS011;31579;52.354;16.974;2023-02-03T03:25:34;22.50;;;9.70;;
45863;SDS011;31579;52.354;16.974;2023-02-03T03:30:33;22.50;;;9.70;;
45863;SDS011;31579;52.354;16.974;2023-02-03T03:35:34;23.80;;;10.20;;
45863;SDS011;31579;52.354;16.974;2023-02-03T03:45:36;22.40;;;9.50;;
45863;SDS011;31579;52.354;16.974;2023-02-03T03:49:06;22.40;;;9.50;;
45863;SDS011;31579;52.354;16.974;2023-02-03T03:54:05;25.60;;;9.80;;
45863;SDS011;31579;52.354;16.974;2023-02-03T03:59:04;25.60;;;9.80;;
45863;SDS011;31579;52.354;16.974;2023-02-03T04:04:05;25.10;;;10.20;;
45863;SDS011;31579;52.354;16.974;2023-02-03T04:09:04;25.10;;;10.20;;
45863;SDS011;31579;52.354;16.974;2023-02-03T04:14:04;17.00;;;8.50;;
45863;SDS011;31579;52.354;16.974;2023-02-03T04:17:44;17.00;;;8.50;;
45863;SDS011;31579;52.354;16.974;2023-02-03T04:22:42;17.00;;;8.50;;
45863;SDS011;31579;52.354;16.974;2023-02-03T04:27:42;18.20;;;8.30;;
45863;SDS011;31579;52.354;16.974;2023-02-03T04:32:43;18.20;;;8.30;;
45863;SDS011;31579;52.354;16.974;2023-02-03T04:37:43;17.30;;;7.90;;
45863;SDS011;31579;52.354;16.974;2023-02-03T04:42:43;17.30;;;7.90;;
45863;SDS011;31579;52.354;16.974;2023-02-03T04:47:42;19.00;;;8.40;;
45863;SDS011;31579;52.354;16.974;2023-02-03T04:52:42;19.00;;;8.40;;
45863;SDS011;31579;52.354;16.974;2023-02-03T04:57:42;18.50;;;7.90;;
45863;SDS011;31579;52.354;16.974;2023-02-03T05:02:42;18.50;;;7.90;;
45863;SDS011;31579;52.354;16.974;2023-02-03T05:07:42;19.10;;;7.40;;
45863;SDS011;31579;52.354;16.974;2023-02-03T05:12:42;19.10;;;7.40;;
45863;SDS011;31579;52.354;16.974;2023-02-03T05:15:39;22.50;;;7.00;;
45863;SDS011;31579;52.354;16.974;2023-02-03T05:25:47;15.00;;;6.40;;
45863;SDS011;31579;52.354;16.974;2023-02-03T05:30:47;15.00;;;6.40;;
45863;SDS011;31579;52.354;16.974;2023-02-03T05:35:47;14.90;;;7.30;;
45863;SDS011;31579;52.354;16.974;2023-02-03T05:40:48;14.90;;;7.30;;
45863;SDS011;31579;52.354;16.974;2023-02-03T05:45:47;16.00;;;7.40;;
45863;SDS011;31579;52.354;16.974;2023-02-03T05:50:47;16.00;;;7.40;;
45863;SDS011;31579;52.354;16.974;2023-02-03T05:55:47;21.00;;;9.20;;
45863;SDS011;31579;52.354;16.974;2023-02-03T06:00:47;21.00;;;9.20;;
45863;SDS011;31579;52.354;16.974;2023-02-03T06:05:47;18.20;;;8.70;;
45863;SDS011;31579;52.354;16.974;2023-02-03T06:10:47;18.20;;;8.70;;
45863;SDS011;31579;52.354;16.974;2023-02-03T06:15:47;26.40;;;10.40;;
45863;SDS011;31579;52.354;16.974;2023-02-03T06:20:51;26.40;;;10.40;;
45863;SDS011;31579;52.354;16.974;2023-02-03T06:25:47;27.50;;;11.70;;
45863;SDS011;31579;52.354;16.974;2023-02-03T06:30:48;27.50;;;11.70;;
45863;SDS011;31579;52.354;16.974;2023-02-03T06:35:47;30.00;;;13.00;;
45863;SDS011;31579;52.354;16.974;2023-02-03T06:40:48;30.00;;;13.00;;
45863;SDS011;31579;52.354;16.974;2023-02-03T06:45:46;32.60;;;14.20;;
45863;SDS011;31579;52.354;16.974;2023-02-03T06:50:46;32.60;;;14.20;;
45863;SDS011;31579;52.354;16.974;2023-02-03T06:55:46;32.50;;;15.60;;
45863;SDS011;31579;52.354;16.974;2023-02-03T07:00:46;32.50;;;15.60;;
45863;SDS011;31579;52.354;16.974;2023-02-03T07:05:46;34.80;;;14.90;;
45863;SDS011;31579;52.354;16.974;2023-02-03T07:10:46;34.80;;;14.90;;
45863;SDS011;31579;52.354;16.974;2023-02-03T07:15:46;32.00;;;14.60;;
45863;SDS011;31579;52.354;16.974;2023-02-03T07:20:46;32.00;;;14.60;;
45863;SDS011;31579;52.354;16.974;2023-02-03T07:25:46;33.10;;;14.30;;
45863;SDS011;31579;52.354;16.974;2023-02-03T07:30:47;33.10;;;14.30;;
45863;SDS011;31579;52.354;16.974;2023-02-03T07:40:46;27.50;;;13.20;;
45863;SDS011;31579;52.354;16.974;2023-02-03T07:45:46;27.10;;;13.40;;
45863;SDS011;31579;52.354;16.974;2023-02-03T07:50:47;27.10;;;13.40;;
45863;SDS011;31579;52.354;16.974;2023-02-03T07:55:46;24.00;;;12.30;;
45863;SDS011;31579;52.354;16.974;2023-02-03T08:00:46;24.00;;;12.30;;
45863;SDS011;31579;52.354;16.974;2023-02-03T08:05:46;23.00;;;11.70;;
45863;SDS011;31579;52.354;16.974;2023-02-03T08:10:46;23.00;;;11.70;;
45863;SDS011;31579;52.354;16.974;2023-02-03T08:15:46;20.10;;;10.70;;
45863;SDS011;31579;52.354;16.974;2023-02-03T08:20:46;20.10;;;10.70;;
45863;SDS011;31579;52.354;16.974;2023-02-03T08:30:46;21.80;;;11.30;;
45863;SDS011;31579;52.354;16.974;2023-02-03T08:35:47;19.20;;;11.00;;
45863;SDS011;31579;52.354;16.974;2023-02-03T08:40:48;19.20;;;11.00;;
45863;SDS011;31579;52.354;16.974;2023-02-03T08:45:46;19.70;;;10.70;;
45863;SDS011;31579;52.354;16.974;2023-02-03T08:50:46;19.70;;;10.70;;
45863;SDS011;31579;52.354;16.974;2023-02-03T08:55:46;19.60;;;10.00;;
45863;SDS011;31579;52.354;16.974;2023-02-03T09:00:47;19.60;;;10.00;;
45863;SDS011;31579;52.354;16.974;2023-02-03T09:05:46;17.00;;;9.60;;
45863;SDS011;31579;52.354;16.974;2023-02-03T09:08:13;17.00;;;9.60;;
45863;SDS011;31579;52.354;16.974;2023-02-03T09:13:11;15.20;;;8.50;;
45863;SDS011;31579;52.354;16.974;2023-02-03T09:18:12;15.20;;;8.50;;
45863;SDS011;31579;52.354;16.974;2023-02-03T09:28:03;14.00;;;7.80;;
45863;SDS011;31579;52.354;16.974;2023-02-03T09:33:03;18.70;;;9.40;;
45863;SDS011;31579;52.354;16.974;2023-02-03T09:38:03;18.70;;;9.40;;
45863;SDS011;31579;52.354;16.974;2023-02-03T09:48:08;12.40;;;7.70;;
45863;SDS011;31579;52.354;16.974;2023-02-03T09:53:04;16.70;;;8.90;;
45863;SDS011;31579;52.354;16.974;2023-02-03T09:58:13;16.70;;;8.90;;
45863;SDS011;31579;52.354;16.974;2023-02-03T10:03:07;23.60;;;15.70;;
45863;SDS011;31579;52.354;16.974;2023-02-03T10:18:44;19.50;;;11.10;;
45863;SDS011;31579;52.354;16.974;2023-02-03T10:23:44;22.00;;;11.80;;
45863;SDS011;31579;52.354;16.974;2023-02-03T10:28:49;22.00;;;11.80;;
45863;SDS011;31579;52.354;16.974;2023-02-03T10:33:44;23.00;;;14.20;;
45863;SDS011;31579;52.354;16.974;2023-02-03T10:43:44;22.00;;;13.30;;
45863;SDS011;31579;52.354;16.974;2023-02-03T10:48:44;22.00;;;13.30;;
45863;SDS011;31579;52.354;16.974;2023-02-03T10:53:44;14.70;;;8.60;;
45863;SDS011;31579;52.354;16.974;2023-02-03T10:58:49;14.70;;;8.60;;
45863;SDS011;31579;52.354;16.974;2023-02-03T11:03:53;18.70;;;9.90;;
45863;SDS011;31579;52.354;16.974;2023-02-03T11:08:46;18.70;;;9.90;;
45863;SDS011;31579;52.354;16.974;2023-02-03T11:13:44;15.40;;;9.60;;
45863;SDS011;31579;52.354;16.974;2023-02-03T11:39:16;19.10;;;10.90;;
45863;SDS011;31579;52.354;16.974;2023-02-03T11:44:16;23.50;;;12.50;;
45863;SDS011;31579;52.354;16.974;2023-02-03T12:29:21;29.60;;;14.50;;
45863;SDS011;31579;52.354;16.974;2023-02-03T12:39:13;24.20;;;12.30;;
45863;SDS011;31579;52.354;16.974;2023-02-03T12:44:14;18.70;;;9.80;;
45863;SDS011;31579;52.354;16.974;2023-02-03T12:59:21;13.10;;;6.90;;
45863;SDS011;31579;52.354;16.974;2023-02-03T13:19:17;15.30;;;6.20;;
45863;SDS011;31579;52.354;16.974;2023-02-03T13:23:11;11.60;;;3.60;;
45863;SDS011;31579;52.354;16.974;2023-02-03T13:43:11;11.90;;;3.70;;
45863;SDS011;31579;52.354;16.974;2023-02-03T13:48:12;11.90;;;3.70;;
45863;SDS011;31579;52.354;16.974;2023-02-03T14:13:18;12.20;;;2.60;;
45863;SDS011;31579;52.354;16.974;2023-02-03T14:28:11;13.30;;;2.40;;
45863;SDS011;31579;52.354;16.974;2023-02-03T14:33:08;9.30;;;1.80;;
45863;SDS011;31579;52.354;16.974;2023-02-03T14:38:09;9.30;;;1.80;;
45863;SDS011;31579;52.354;16.974;2023-02-03T14:49:50;12.90;;;2.30;;
45863;SDS011;31579;52.354;16.974;2023-02-03T14:59:48;18.90;;;3.50;;
45863;SDS011;31579;52.354;16.974;2023-02-03T15:04:46;29.60;;;7.70;;
45863;SDS011;31579;52.354;16.974;2023-02-03T15:09:45;29.60;;;7.70;;
45863;SDS011;31579;52.354;16.974;2023-02-03T15:14:50;20.30;;;3.90;;
45863;SDS011;31579;52.354;16.974;2023-02-03T15:19:45;20.30;;;3.90;;
45863;SDS011;31579;52.354;16.974;2023-02-03T15:24:45;20.50;;;5.00;;
45863;SDS011;31579;52.354;16.974;2023-02-03T15:29:45;20.50;;;5.00;;
45863;SDS011;31579;52.354;16.974;2023-02-03T15:34:47;21.40;;;5.10;;
45863;SDS011;31579;52.354;16.974;2023-02-03T15:39:52;21.40;;;5.10;;
45863;SDS011;31579;52.354;16.974;2023-02-03T15:49:45;24.30;;;5.20;;
45863;SDS011;31579;52.354;16.974;2023-02-03T15:59:03;29.00;;;5.30;;
45863;SDS011;31579;52.354;16.974;2023-02-03T16:04:03;16.30;;;3.30;;
45863;SDS011;31579;52.354;16.974;2023-02-03T16:09:22;16.30;;;3.30;;
45863;SDS011;31579;52.354;16.974;2023-02-03T16:20:55;18.80;;;3.90;;
45863;SDS011;31579;52.354;16.974;2023-02-03T16:35:55;22.20;;;5.10;;
45863;SDS011;31579;52.354;16.974;2023-02-03T16:40:55;22.20;;;5.10;;
45863;SDS011;31579;52.354;16.974;2023-02-03T16:45:56;20.80;;;5.40;;
45863;SDS011;31579;52.354;16.974;2023-02-03T16:51:04;20.80;;;5.40;;
45863;SDS011;31579;52.354;16.974;2023-02-03T16:55:56;19.30;;;5.70;;
45863;SDS011;31579;52.354;16.974;2023-02-03T16:56:19;19.30;;;5.70;;
45863;SDS011;31579;52.354;16.974;2023-02-03T17:01:18;19.30;;;5.70;;
45863;SDS011;31579;52.354;16.974;2023-02-03T17:06:18;26.10;;;5.50;;
45863;SDS011;31579;52.354;16.974;2023-02-03T17:09:24;26.10;;;5.50;;
45863;SDS011;31579;52.354;16.974;2023-02-03T17:14:23;24.40;;;5.00;;
45863;SDS011;31579;52.354;16.974;2023-02-03T17:19:23;24.40;;;5.00;;
45863;SDS011;31579;52.354;16.974;2023-02-03T17:24:23;24.20;;;6.00;;
45863;SDS011;31579;52.354;16.974;2023-02-03T17:29:23;24.20;;;6.00;;
45863;SDS011;31579;52.354;16.974;2023-02-03T17:34:23;23.20;;;5.10;;
45863;SDS011;31579;52.354;16.974;2023-02-03T17:39:23;23.20;;;5.10;;
45863;SDS011;31579;52.354;16.974;2023-02-03T17:44:23;22.50;;;5.00;;
45863;SDS011;31579;52.354;16.974;2023-02-03T17:49:23;22.50;;;5.00;;
45863;SDS011;31579;52.354;16.974;2023-02-03T17:54:23;18.10;;;4.60;;
45863;SDS011;31579;52.354;16.974;2023-02-03T17:59:23;18.10;;;4.60;;
45863;SDS011;31579;52.354;16.974;2023-02-03T18:04:26;20.30;;;4.90;;
45863;SDS011;31579;52.354;16.974;2023-02-03T18:09:23;20.30;;;4.90;;
45863;SDS011;31579;52.354;16.974;2023-02-03T18:14:23;14.70;;;3.60;;
45863;SDS011;31579;52.354;16.974;2023-02-03T18:19:23;14.70;;;3.60;;
45863;SDS011;31579;52.354;16.974;2023-02-03T18:24:23;15.40;;;4.20;;
45863;SDS011;31579;52.354;16.974;2023-02-03T18:29:23;15.40;;;4.20;;
45863;SDS011;31579;52.354;16.974;2023-02-03T18:34:23;14.80;;;3.80;;
45863;SDS011;31579;52.354;16.974;2023-02-03T18:40:03;14.80;;;3.80;;
45863;SDS011;31579;52.354;16.974;2023-02-03T18:45:03;16.00;;;5.00;;
45863;SDS011;31579;52.354;16.974;2023-02-03T18:50:03;16.00;;;5.00;;
45863;SDS011;31579;52.354;16.974;2023-02-03T18:55:03;15.40;;;5.10;;
45863;SDS011;31579;52.354;16.974;2023-02-03T19:00:04;15.40;;;5.10;;
45863;SDS011;31579;52.354;16.974;2023-02-03T19:05:03;19.00;;;5.90;;
45863;SDS011;31579;52.354;16.974;2023-02-03T19:10:03;19.00;;;5.90;;
45863;SDS011;31579;52.354;16.974;2023-02-03T19:15:03;21.30;;;6.40;;
45863;SDS011;31579;52.354;16.974;2023-02-03T19:15:25;21.30;;;6.40;;
45863;SDS011;31579;52.354;16.974;2023-02-03T19:20:23;21.30;;;6.40;;
45863;SDS011;31579;52.354;16.974;2023-02-03T19:25:23;16.90;;;5.40;;
45863;SDS011;31579;52.354;16.974;2023-02-03T19:30:23;16.90;;;5.40;;
45863;SDS011;31579;52.354;16.974;2023-02-03T19:35:23;18.90;;;5.00;;
45863;SDS011;31579;52.354;16.974;2023-02-03T19:40:23;18.90;;;5.00;;
45863;SDS011;31579;52.354;16.974;2023-02-03T19:45:23;16.40;;;5.00;;
45863;SDS011;31579;52.354;16.974;2023-02-03T19:50:23;16.40;;;5.00;;
45863;SDS011;31579;52.354;16.974;2023-02-03T19:55:23;21.90;;;6.70;;
45863;SDS011;31579;52.354;16.974;2023-02-03T20:00:23;21.90;;;6.70;;
45863;SDS011;31579;52.354;16.974;2023-02-03T20:05:23;25.80;;;7.70;;
45863;SDS011;31579;52.354;16.974;2023-02-03T20:06:29;25.80;;;7.70;;
45863;SDS011;31579;52.354;16.974;2023-02-03T20:11:27;7.40;;;1.80;;
45863;SDS011;31579;52.354;16.974;2023-02-03T20:16:27;7.40;;;1.80;;
45863;SDS011;31579;52.354;16.974;2023-02-03T20:21:38;12.10;;;3.10;;
45863;SDS011;31579;52.354;16.974;2023-02-03T20:26:37;12.10;;;3.10;;
45863;SDS011;31579;52.354;16.974;2023-02-03T20:31:37;11.90;;;3.50;;
45863;SDS011;31579;52.354;16.974;2023-02-03T20:36:37;11.90;;;3.50;;
45863;SDS011;31579;52.354;16.974;2023-02-03T20:42:39;9.10;;;3.10;;
45863;SDS011;31579;52.354;16.974;2023-02-03T20:47:39;9.10;;;3.10;;
45863;SDS011;31579;52.354;16.974;2023-02-03T20:52:39;34.50;;;9.70;;
45863;SDS011;31579;52.354;16.974;2023-02-03T20:57:39;34.50;;;9.70;;
45863;SDS011;31579;52.354;16.974;2023-02-03T21:02:39;10.70;;;2.80;;
45863;SDS011;31579;52.354;16.974;2023-02-03T21:07:39;10.70;;;2.80;;
45863;SDS011;31579;52.354;16.974;2023-02-03T21:12:39;5.80;;;1.80;;
45863;SDS011;31579;52.354;16.974;2023-02-03T21:17:39;5.80;;;1.80;;
45863;SDS011;31579;52.354;16.974;2023-02-03T21:22:39;7.60;;;1.90;;
45863;SDS011;31579;52.354;16.974;2023-02-03T21:27:43;7.60;;;1.90;;
45863;SDS011;31579;52.354;16.974;2023-02-03T21:32:39;6.20;;;1.70;;
45863;SDS011;31579;52.354;16.974;2023-02-03T21:37:39;6.20;;;1.70;;
45863;SDS011;31579;52.354;16.974;2023-02-03T21:42:39;6.20;;;1.60;;
45863;SDS011;31579;52.354;16.974;2023-02-03T21:47:39;6.20;;;1.60;;
45863;SDS011;31579;52.354;16.974;2023-02-03T21:50:37;6.20;;;1.60;;
45863;SDS011;31579;52.354;16.974;2023-02-03T21:55:36;6.20;;;1.60;;
45863;SDS011;31579;52.354;16.974;2023-02-03T22:05:36;2.60;;;0.70;;
45863;SDS011;31579;52.354;16.974;2023-02-03T22:10:35;2.60;;;0.70;;
45863;SDS011;31579;52.354;16.974;2023-02-03T22:15:35;3.10;;;1.10;;
45863;SDS011;31579;52.354;16.974;2023-02-03T22:20:35;3.10;;;1.10;;
45863;SDS011;31579;52.354;16.974;2023-02-03T22:25:35;3.80;;;1.10;;
45863;SDS011;31579;52.354;16.974;2023-02-03T22:30:35;3.80;;;1.10;;
45863;SDS011;31579;52.354;16.974;2023-02-03T22:35:35;3.60;;;1.20;;
45863;SDS011;31579;52.354;16.974;2023-02-03T22:40:21;3.60;;;1.20;;
45863;SDS011;31579;52.354;16.974;2023-02-03T22:45:20;3.60;;;1.20;;
45863;SDS011;31579;52.354;16.974;2023-02-03T22:50:20;3.60;;;1.20;;
45863;SDS011;31579;52.354;16.974;2023-02-03T22:55:20;4.80;;;1.40;;
45863;SDS011;31579;52.354;16.974;2023-02-03T23:00:20;4.80;;;1.40;;
45863;SDS011;31579;52.354;16.974;2023-02-03T23:05:20;3.10;;;1.40;;
45863;SDS011;31579;52.354;16.974;2023-02-03T23:10:21;3.10;;;1.40;;
45863;SDS011;31579;52.354;16.974;2023-02-03T23:15:20;4.00;;;1.60;;
45863;SDS011;31579;52.354;16.974;2023-02-03T23:20:20;4.00;;;1.60;;
45863;SDS011;31579;52.354;16.974;2023-02-03T23:25:20;4.60;;;2.00;;
45863;SDS011;31579;52.354;16.974;2023-02-03T23:30:20;4.60;;;2.00;;
45863;SDS011;31579;52.354;16.974;2023-02-03T23:35:20;3.90;;;1.90;;
45863;SDS011;31579;52.354;16.974;2023-02-03T23:40:20;3.90;;;1.90;;
45863;SDS011;31579;52.354;16.974;2023-02-03T23:45:20;13.90;;;9.00;;
45863;SDS011;31579;52.354;16.974;2023-02-03T23:50:20;13.90;;;9.00;;
45863;SDS011;31579;52.354;16.974;2023-02-03T23:55:20;15.60;;;9.20;;
